sensor_id;sensor_type;location;lat;lon;timestamp;temperature;humidity
26262;DHT22;13988;52.446;13.280;2023-12-07T00:00:35;1.10;99.90
26262;DHT22;13988;52.446;13.280;2023-12-07T00:03:01;1.10;99.90
26262;DHT22;13988;52.446;13.280;2023-12-07T00:05:26;1.20;99.90
26262;DHT22;13988;52.446;13.280;2023-12-07T00:07:52;1.20;99.90
26262;DHT22;13988;52.446;13.280;2023-12-07T00:10:18;1.10;99.90
26262;DHT22;13988;52.446;13.280;2023-12-07T00:12:43;1.20;99.90
26262;DHT22;13988;52.446;13.280;2023-12-07T00:15:09;1.20;99.90
26262;DHT22;13988;52.446;13.280;2023-12-07T00:17:35;1.20;99.90
26262;DHT22;13988;52.446;13.280;2023-12-07T00:20:00;1.20;99.90
26262;DHT22;13988;52.446;13.280;2023-12-07T00:22:26;1.20;99.90
26262;DHT22;13988;52.446;13.280;2023-12-07T00:24:53;1.20;99.90
26262;DHT22;13988;52.446;13.280;2023-12-07T00:27:19;1.20;99.90
26262;DHT22;13988;52.446;13.280;2023-12-07T00:29:45;1.20;99.90
26262;DHT22;13988;52.446;13.280;2023-12-07T00:32:10;1.20;99.90
26262;DHT22;13988;52.446;13.280;2023-12-07T00:34:36;1.20;99.90
26262;DHT22;13988;52.446;13.280;2023-12-07T00:37:02;1.20;99.90
26262;DHT22;13988;52.446;13.280;2023-12-07T00:39:28;1.20;99.90
26262;DHT22;13988;52.446;13.280;2023-12-07T00:41:54;1.20;99.90
26262;DHT22;13988;52.446;13.280;2023-12-07T00:44:20;1.20;99.90
26262;DHT22;13988;52.446;13.280;2023-12-07T00:46:45;1.20;99.90
26262;DHT22;13988;52.446;13.280;2023-12-07T00:49:11;1.20;99.90
26262;DHT22;13988;52.446;13.280;2023-12-07T00:51:37;1.20;99.90
26262;DHT22;13988;52.446;13.280;2023-12-07T00:54:03;1.20;99.90
26262;DHT22;13988;52.446;13.280;2023-12-07T00:56:29;1.20;99.90
26262;DHT22;13988;52.446;13.280;2023-12-07T00:58:54;1.20;99.90
26262;DHT22;13988;52.446;13.280;2023-12-07T01:01:20;1.20;99.90
26262;DHT22;13988;52.446;13.280;2023-12-07T01:03:46;1.20;99.90
26262;DHT22;13988;52.446;13.280;2023-12-07T01:06:11;1.20;99.90
26262;DHT22;13988;52.446;13.280;2023-12-07T01:08:37;1.20;99.90
26262;DHT22;13988;52.446;13.280;2023-12-07T01:11:04;1.20;99.90
26262;DHT22;13988;52.446;13.280;2023-12-07T01:13:30;1.20;99.90
26262;DHT22;13988;52.446;13.280;2023-12-07T01:15:56;1.20;99.90
26262;DHT22;13988;52.446;13.280;2023-12-07T01:18:21;1.20;99.90
26262;DHT22;13988;52.446;13.280;2023-12-07T01:20:47;1.20;99.90
26262;DHT22;13988;52.446;13.280;2023-12-07T01:23:14;1.20;99.90
26262;DHT22;13988;52.446;13.280;2023-12-07T01:25:39;1.20;99.90
26262;DHT22;13988;52.446;13.280;2023-12-07T01:28:05;1.20;99.90
26262;DHT22;13988;52.446;13.280;2023-12-07T01:30:31;1.20;99.90
26262;DHT22;13988;52.446;13.280;2023-12-07T01:32:57;1.10;99.90
26262;DHT22;13988;52.446;13.280;2023-12-07T01:35:22;1.10;99.90
26262;DHT22;13988;52.446;13.280;2023-12-07T01:37:48;1.10;99.90
26262;DHT22;13988;52.446;13.280;2023-12-07T01:40:14;1.10;99.90
26262;DHT22;13988;52.446;13.280;2023-12-07T01:42:41;1.10;99.90
26262;DHT22;13988;52.446;13.280;2023-12-07T01:45:14;1.10;99.90
26262;DHT22;13988;52.446;13.280;2023-12-07T01:47:40;1.10;99.90
26262;DHT22;13988;52.446;13.280;2023-12-07T01:50:08;1.10;99.90
26262;DHT22;13988;52.446;13.280;2023-12-07T01:52:38;1.10;99.90
26262;DHT22;13988;52.446;13.280;2023-12-07T01:55:06;1.10;99.90
26262;DHT22;13988;52.446;13.280;2023-12-07T01:57:32;1.10;99.90
26262;DHT22;13988;52.446;13.280;2023-12-07T01:59:58;1.10;99.90
26262;DHT22;13988;52.446;13.280;2023-12-07T02:02:24;1.10;99.90
26262;DHT22;13988;52.446;13.280;2023-12-07T02:04:49;1.20;99.90
26262;DHT22;13988;52.446;13.280;2023-12-07T02:07:15;1.10;99.90
26262;DHT22;13988;52.446;13.280;2023-12-07T02:09:41;1.10;99.90
26262;DHT22;13988;52.446;13.280;2023-12-07T02:12:07;1.10;99.90
26262;DHT22;13988;52.446;13.280;2023-12-07T02:14:33;1.10;99.90
26262;DHT22;13988;52.446;13.280;2023-12-07T02:17:16;1.10;99.90
26262;DHT22;13988;52.446;13.280;2023-12-07T02:19:51;1.10;99.90
26262;DHT22;13988;52.446;13.280;2023-12-07T02:22:25;1.10;99.90
26262;DHT22;13988;52.446;13.280;2023-12-07T02:25:09;1.10;99.90
26262;DHT22;13988;52.446;13.280;2023-12-07T02:27:42;1.10;99.90
26262;DHT22;13988;52.446;13.280;2023-12-07T02:30:10;1.10;99.90
26262;DHT22;13988;52.446;13.280;2023-12-07T02:32:37;1.10;99.90
26262;DHT22;13988;52.446;13.280;2023-12-07T02:35:03;1.10;99.90
26262;DHT22;13988;52.446;13.280;2023-12-07T02:37:35;1.10;99.90
26262;DHT22;13988;52.446;13.280;2023-12-07T02:40:05;1.10;99.90
26262;DHT22;13988;52.446;13.280;2023-12-07T02:42:35;1.10;99.90
26262;DHT22;13988;52.446;13.280;2023-12-07T02:45:03;1.20;99.90
26262;DHT22;13988;52.446;13.280;2023-12-07T02:47:29;1.20;99.90
26262;DHT22;13988;52.446;13.280;2023-12-07T02:49:55;1.20;99.90
26262;DHT22;13988;52.446;13.280;2023-12-07T02:52:20;1.20;99.90
26262;DHT22;13988;52.446;13.280;2023-12-07T02:54:46;1.10;99.90
26262;DHT22;13988;52.446;13.280;2023-12-07T02:57:11;1.10;99.90
26262;DHT22;13988;52.446;13.280;2023-12-07T02:59:37;1.10;99.90
26262;DHT22;13988;52.446;13.280;2023-12-07T03:02:03;1.10;99.90
26262;DHT22;13988;52.446;13.280;2023-12-07T03:04:29;1.10;99.90
26262;DHT22;13988;52.446;13.280;2023-12-07T03:06:54;1.10;99.90
26262;DHT22;13988;52.446;13.280;2023-12-07T03:09:20;1.10;99.90
26262;DHT22;13988;52.446;13.280;2023-12-07T03:11:45;1.10;99.90
26262;DHT22;13988;52.446;13.280;2023-12-07T03:14:11;1.10;99.90
26262;DHT22;13988;52.446;13.280;2023-12-07T03:16:38;1.10;99.90
26262;DHT22;13988;52.446;13.280;2023-12-07T03:19:04;1.10;99.90
26262;DHT22;13988;52.446;13.280;2023-12-07T03:21:29;1.10;99.90
26262;DHT22;13988;52.446;13.280;2023-12-07T03:23:55;1.10;99.90
26262;DHT22;13988;52.446;13.280;2023-12-07T03:26:20;1.10;99.90
26262;DHT22;13988;52.446;13.280;2023-12-07T03:28:46;1.10;99.90
26262;DHT22;13988;52.446;13.280;2023-12-07T03:31:11;1.10;99.90
26262;DHT22;13988;52.446;13.280;2023-12-07T03:33:37;1.10;99.90
26262;DHT22;13988;52.446;13.280;2023-12-07T03:36:04;1.10;99.90
26262;DHT22;13988;52.446;13.280;2023-12-07T03:38:30;1.10;99.90
26262;DHT22;13988;52.446;13.280;2023-12-07T03:40:56;1.10;99.90
26262;DHT22;13988;52.446;13.280;2023-12-07T03:43:21;1.20;99.90
26262;DHT22;13988;52.446;13.280;2023-12-07T03:45:47;1.10;99.90
26262;DHT22;13988;52.446;13.280;2023-12-07T03:48:13;1.10;99.90
26262;DHT22;13988;52.446;13.280;2023-12-07T03:50:38;1.10;99.90
26262;DHT22;13988;52.446;13.280;2023-12-07T03:53:04;1.10;99.90
26262;DHT22;13988;52.446;13.280;2023-12-07T03:55:29;1.20;99.90
26262;DHT22;13988;52.446;13.280;2023-12-07T03:57:55;1.10;99.90
26262;DHT22;13988;52.446;13.280;2023-12-07T04:00:21;1.20;99.90
26262;DHT22;13988;52.446;13.280;2023-12-07T04:02:46;1.10;99.90
26262;DHT22;13988;52.446;13.280;2023-12-07T04:05:13;1.20;99.90
26262;DHT22;13988;52.446;13.280;2023-12-07T04:07:39;1.20;99.90
26262;DHT22;13988;52.446;13.280;2023-12-07T04:10:05;1.20;99.90
26262;DHT22;13988;52.446;13.280;2023-12-07T04:12:31;1.10;99.90
26262;DHT22;13988;52.446;13.280;2023-12-07T04:14:57;1.20;99.90
26262;DHT22;13988;52.446;13.280;2023-12-07T04:17:23;1.20;99.90
26262;DHT22;13988;52.446;13.280;2023-12-07T04:19:48;1.20;99.90
26262;DHT22;13988;52.446;13.280;2023-12-07T04:22:14;1.20;99.90
26262;DHT22;13988;52.446;13.280;2023-12-07T04:24:39;1.20;99.90
26262;DHT22;13988;52.446;13.280;2023-12-07T04:27:05;1.20;99.90
26262;DHT22;13988;52.446;13.280;2023-12-07T04:29:31;1.20;99.90
26262;DHT22;13988;52.446;13.280;2023-12-07T04:31:57;1.20;99.90
26262;DHT22;13988;52.446;13.280;2023-12-07T04:34:22;1.20;99.90
26262;DHT22;13988;52.446;13.280;2023-12-07T04:36:49;1.30;99.90
26262;DHT22;13988;52.446;13.280;2023-12-07T04:39:14;1.20;99.90
26262;DHT22;13988;52.446;13.280;2023-12-07T04:41:40;1.20;99.90
26262;DHT22;13988;52.446;13.280;2023-12-07T04:44:06;1.20;99.90
26262;DHT22;13988;52.446;13.280;2023-12-07T04:46:31;1.20;99.90
26262;DHT22;13988;52.446;13.280;2023-12-07T04:48:57;1.30;99.90
26262;DHT22;13988;52.446;13.280;2023-12-07T04:51:23;1.30;99.90
26262;DHT22;13988;52.446;13.280;2023-12-07T04:53:48;1.30;99.90
26262;DHT22;13988;52.446;13.280;2023-12-07T04:56:14;1.20;99.90
26262;DHT22;13988;52.446;13.280;2023-12-07T04:58:39;1.30;99.90
26262;DHT22;13988;52.446;13.280;2023-12-07T05:01:05;1.30;99.90
26262;DHT22;13988;52.446;13.280;2023-12-07T05:03:31;1.30;99.90
26262;DHT22;13988;52.446;13.280;2023-12-07T05:05:57;1.30;99.90
26262;DHT22;13988;52.446;13.280;2023-12-07T05:08:23;1.30;99.90
26262;DHT22;13988;52.446;13.280;2023-12-07T05:10:49;1.30;99.90
26262;DHT22;13988;52.446;13.280;2023-12-07T05:13:14;1.30;99.90
26262;DHT22;13988;52.446;13.280;2023-12-07T05:15:40;1.30;99.90
26262;DHT22;13988;52.446;13.280;2023-12-07T05:18:06;1.20;99.90
26262;DHT22;13988;52.446;13.280;2023-12-07T05:20:32;1.30;99.90
26262;DHT22;13988;52.446;13.280;2023-12-07T05:22:57;1.20;99.90
26262;DHT22;13988;52.446;13.280;2023-12-07T05:25:23;1.20;99.90
26262;DHT22;13988;52.446;13.280;2023-12-07T05:27:49;1.20;99.90
26262;DHT22;13988;52.446;13.280;2023-12-07T05:30:14;1.20;99.90
26262;DHT22;13988;52.446;13.280;2023-12-07T05:32:40;1.30;99.90
26262;DHT22;13988;52.446;13.280;2023-12-07T05:35:06;1.20;99.90
26262;DHT22;13988;52.446;13.280;2023-12-07T05:37:32;1.20;99.90
26262;DHT22;13988;52.446;13.280;2023-12-07T05:39:58;1.20;99.90
26262;DHT22;13988;52.446;13.280;2023-12-07T05:42:23;1.20;99.90
26262;DHT22;13988;52.446;13.280;2023-12-07T05:44:49;1.30;99.90
26262;DHT22;13988;52.446;13.280;2023-12-07T05:47:15;1.30;99.90
26262;DHT22;13988;52.446;13.280;2023-12-07T05:49:40;1.20;99.90
26262;DHT22;13988;52.446;13.280;2023-12-07T05:52:06;1.30;99.90
26262;DHT22;13988;52.446;13.280;2023-12-07T05:54:31;1.30;99.90
26262;DHT22;13988;52.446;13.280;2023-12-07T05:56:57;1.30;99.90
26262;DHT22;13988;52.446;13.280;2023-12-07T05:59:23;1.30;99.90
26262;DHT22;13988;52.446;13.280;2023-12-07T06:01:52;1.30;99.90
26262;DHT22;13988;52.446;13.280;2023-12-07T06:04:18;1.30;99.90
26262;DHT22;13988;52.446;13.280;2023-12-07T06:06:45;1.20;99.90
26262;DHT22;13988;52.446;13.280;2023-12-07T06:09:11;1.30;99.90
26262;DHT22;13988;52.446;13.280;2023-12-07T06:11:36;1.30;99.90
26262;DHT22;13988;52.446;13.280;2023-12-07T06:14:02;1.30;99.90
26262;DHT22;13988;52.446;13.280;2023-12-07T06:16:28;1.30;99.90
26262;DHT22;13988;52.446;13.280;2023-12-07T06:18:53;1.30;99.90
26262;DHT22;13988;52.446;13.280;2023-12-07T06:21:19;1.20;99.90
26262;DHT22;13988;52.446;13.280;2023-12-07T06:23:46;1.20;99.90
26262;DHT22;13988;52.446;13.280;2023-12-07T06:26:12;1.30;99.90
26262;DHT22;13988;52.446;13.280;2023-12-07T06:28:38;1.30;99.90
26262;DHT22;13988;52.446;13.280;2023-12-07T06:31:07;1.20;99.90
26262;DHT22;13988;52.446;13.280;2023-12-07T06:33:33;1.30;99.90
26262;DHT22;13988;52.446;13.280;2023-12-07T06:36:00;1.30;99.90
26262;DHT22;13988;52.446;13.280;2023-12-07T06:38:26;1.30;99.90
26262;DHT22;13988;52.446;13.280;2023-12-07T06:40:51;1.30;99.90
26262;DHT22;13988;52.446;13.280;2023-12-07T06:43:17;1.30;99.90
26262;DHT22;13988;52.446;13.280;2023-12-07T06:45:42;1.30;99.90
26262;DHT22;13988;52.446;13.280;2023-12-07T06:48:08;1.30;99.90
26262;DHT22;13988;52.446;13.280;2023-12-07T06:50:34;1.30;99.90
26262;DHT22;13988;52.446;13.280;2023-12-07T06:52:59;1.40;99.90
26262;DHT22;13988;52.446;13.280;2023-12-07T06:55:25;1.30;99.90
26262;DHT22;13988;52.446;13.280;2023-12-07T06:57:51;1.40;99.90
26262;DHT22;13988;52.446;13.280;2023-12-07T07:00:16;1.30;99.90
26262;DHT22;13988;52.446;13.280;2023-12-07T07:02:43;1.30;99.90
26262;DHT22;13988;52.446;13.280;2023-12-07T07:05:09;1.30;99.90
26262;DHT22;13988;52.446;13.280;2023-12-07T07:07:37;1.30;99.90
26262;DHT22;13988;52.446;13.280;2023-12-07T07:10:03;1.30;99.90
26262;DHT22;13988;52.446;13.280;2023-12-07T07:12:28;1.30;99.90
26262;DHT22;13988;52.446;13.280;2023-12-07T07:14:55;1.40;99.90
26262;DHT22;13988;52.446;13.280;2023-12-07T07:17:20;1.40;99.90
26262;DHT22;13988;52.446;13.280;2023-12-07T07:19:46;1.30;99.90
26262;DHT22;13988;52.446;13.280;2023-12-07T07:22:11;1.30;99.90
26262;DHT22;13988;52.446;13.280;2023-12-07T07:24:37;1.30;99.90
26262;DHT22;13988;52.446;13.280;2023-12-07T07:27:03;1.20;99.90
26262;DHT22;13988;52.446;13.280;2023-12-07T07:29:29;1.20;99.90
26262;DHT22;13988;52.446;13.280;2023-12-07T07:31:54;1.30;99.90
26262;DHT22;13988;52.446;13.280;2023-12-07T07:34:21;1.30;99.90
26262;DHT22;13988;52.446;13.280;2023-12-07T07:36:47;1.30;99.90
26262;DHT22;13988;52.446;13.280;2023-12-07T07:39:12;1.30;99.90
26262;DHT22;13988;52.446;13.280;2023-12-07T07:41:39;1.30;99.90
26262;DHT22;13988;52.446;13.280;2023-12-07T07:44:05;1.30;99.90
26262;DHT22;13988;52.446;13.280;2023-12-07T07:46:31;1.30;99.90
26262;DHT22;13988;52.446;13.280;2023-12-07T07:48:56;1.30;99.90
26262;DHT22;13988;52.446;13.280;2023-12-07T07:51:22;1.30;99.90
26262;DHT22;13988;52.446;13.280;2023-12-07T07:53:47;1.30;99.90
26262;DHT22;13988;52.446;13.280;2023-12-07T07:56:13;1.30;99.90
26262;DHT22;13988;52.446;13.280;2023-12-07T07:58:39;1.40;99.90
26262;DHT22;13988;52.446;13.280;2023-12-07T08:01:04;1.40;99.90
26262;DHT22;13988;52.446;13.280;2023-12-07T08:03:30;1.40;99.90
26262;DHT22;13988;52.446;13.280;2023-12-07T08:05:56;1.40;99.90
26262;DHT22;13988;52.446;13.280;2023-12-07T08:08:21;1.40;99.90
26262;DHT22;13988;52.446;13.280;2023-12-07T08:10:47;1.60;99.90
26262;DHT22;13988;52.446;13.280;2023-12-07T08:13:12;1.70;99.90
26262;DHT22;13988;52.446;13.280;2023-12-07T08:15:38;1.80;99.90
26262;DHT22;13988;52.446;13.280;2023-12-07T08:18:04;1.90;99.90
26262;DHT22;13988;52.446;13.280;2023-12-07T08:20:30;1.70;99.90
26262;DHT22;13988;52.446;13.280;2023-12-07T08:22:56;1.60;99.90
26262;DHT22;13988;52.446;13.280;2023-12-07T08:25:22;1.50;99.90
26262;DHT22;13988;52.446;13.280;2023-12-07T08:27:47;1.50;99.90
26262;DHT22;13988;52.446;13.280;2023-12-07T08:30:13;1.50;99.90
26262;DHT22;13988;52.446;13.280;2023-12-07T08:32:39;1.50;99.90
26262;DHT22;13988;52.446;13.280;2023-12-07T08:35:05;1.50;99.90
26262;DHT22;13988;52.446;13.280;2023-12-07T08:37:32;1.50;99.90
26262;DHT22;13988;52.446;13.280;2023-12-07T08:39:58;1.50;99.90
26262;DHT22;13988;52.446;13.280;2023-12-07T08:42:23;1.40;99.90
26262;DHT22;13988;52.446;13.280;2023-12-07T08:44:49;1.40;99.90
26262;DHT22;13988;52.446;13.280;2023-12-07T08:47:15;1.50;99.90
26262;DHT22;13988;52.446;13.280;2023-12-07T08:49:40;1.40;99.90
26262;DHT22;13988;52.446;13.280;2023-12-07T08:52:06;1.50;99.90
26262;DHT22;13988;52.446;13.280;2023-12-07T08:54:32;1.50;99.90
26262;DHT22;13988;52.446;13.280;2023-12-07T08:56:57;1.60;99.90
26262;DHT22;13988;52.446;13.280;2023-12-07T08:59:23;1.50;99.90
26262;DHT22;13988;52.446;13.280;2023-12-07T09:01:49;1.50;99.90
26262;DHT22;13988;52.446;13.280;2023-12-07T09:04:14;1.50;99.90
26262;DHT22;13988;52.446;13.280;2023-12-07T09:06:40;1.50;99.90
26262;DHT22;13988;52.446;13.280;2023-12-07T09:09:06;1.50;99.90
26262;DHT22;13988;52.446;13.280;2023-12-07T09:11:31;1.50;99.90
26262;DHT22;13988;52.446;13.280;2023-12-07T09:13:57;1.60;99.90
26262;DHT22;13988;52.446;13.280;2023-12-07T09:16:23;1.50;99.90
26262;DHT22;13988;52.446;13.280;2023-12-07T09:18:50;1.60;99.90
26262;DHT22;13988;52.446;13.280;2023-12-07T09:21:15;1.60;99.90
26262;DHT22;13988;52.446;13.280;2023-12-07T09:23:42;1.60;99.90
26262;DHT22;13988;52.446;13.280;2023-12-07T09:26:08;1.60;99.90
26262;DHT22;13988;52.446;13.280;2023-12-07T09:28:33;1.60;99.90
26262;DHT22;13988;52.446;13.280;2023-12-07T09:30:59;1.60;99.90
26262;DHT22;13988;52.446;13.280;2023-12-07T09:33:25;1.60;99.90
26262;DHT22;13988;52.446;13.280;2023-12-07T09:35:51;1.60;99.90
26262;DHT22;13988;52.446;13.280;2023-12-07T09:38:17;1.60;99.90
26262;DHT22;13988;52.446;13.280;2023-12-07T09:40:42;1.60;99.90
26262;DHT22;13988;52.446;13.280;2023-12-07T09:43:08;1.60;99.90
26262;DHT22;13988;52.446;13.280;2023-12-07T09:45:34;1.60;99.90
26262;DHT22;13988;52.446;13.280;2023-12-07T09:48:00;1.60;99.90
26262;DHT22;13988;52.446;13.280;2023-12-07T09:50:26;1.60;99.90
26262;DHT22;13988;52.446;13.280;2023-12-07T09:52:57;1.60;99.90
26262;DHT22;13988;52.446;13.280;2023-12-07T09:55:23;1.50;99.90
26262;DHT22;13988;52.446;13.280;2023-12-07T09:57:50;1.60;99.90
26262;DHT22;13988;52.446;13.280;2023-12-07T10:00:16;1.70;99.90
26262;DHT22;13988;52.446;13.280;2023-12-07T10:02:45;1.70;99.90
26262;DHT22;13988;52.446;13.280;2023-12-07T10:05:12;1.60;99.90
26262;DHT22;13988;52.446;13.280;2023-12-07T10:07:46;1.60;99.90
26262;DHT22;13988;52.446;13.280;2023-12-07T10:10:13;1.60;99.90
26262;DHT22;13988;52.446;13.280;2023-12-07T10:15:16;1.60;99.90
26262;DHT22;13988;52.446;13.280;2023-12-07T10:20:14;1.60;99.90
26262;DHT22;13988;52.446;13.280;2023-12-07T10:22:40;1.70;99.90
26262;DHT22;13988;52.446;13.280;2023-12-07T10:25:07;1.80;99.90
26262;DHT22;13988;52.446;13.280;2023-12-07T10:27:34;1.80;99.90
26262;DHT22;13988;52.446;13.280;2023-12-07T10:30:01;1.80;99.90
26262;DHT22;13988;52.446;13.280;2023-12-07T10:32:26;1.90;99.90
26262;DHT22;13988;52.446;13.280;2023-12-07T10:34:53;1.90;99.90
26262;DHT22;13988;52.446;13.280;2023-12-07T10:37:19;1.80;99.90
26262;DHT22;13988;52.446;13.280;2023-12-07T10:39:44;1.80;99.90
26262;DHT22;13988;52.446;13.280;2023-12-07T10:42:10;1.80;99.90
26262;DHT22;13988;52.446;13.280;2023-12-07T10:44:42;1.80;99.90
26262;DHT22;13988;52.446;13.280;2023-12-07T10:47:10;1.80;99.90
26262;DHT22;13988;52.446;13.280;2023-12-07T10:49:40;1.70;99.90
26262;DHT22;13988;52.446;13.280;2023-12-07T10:52:07;1.70;99.90
26262;DHT22;13988;52.446;13.280;2023-12-07T10:54:50;1.70;99.90
26262;DHT22;13988;52.446;13.280;2023-12-07T10:57:17;1.80;99.90
26262;DHT22;13988;52.446;13.280;2023-12-07T10:59:46;1.70;99.90
26262;DHT22;13988;52.446;13.280;2023-12-07T11:02:14;1.60;99.90
26262;DHT22;13988;52.446;13.280;2023-12-07T11:04:41;1.70;99.90
26262;DHT22;13988;52.446;13.280;2023-12-07T11:07:13;1.70;99.90
26262;DHT22;13988;52.446;13.280;2023-12-07T11:09:44;1.80;99.90
26262;DHT22;13988;52.446;13.280;2023-12-07T11:12:38;1.80;99.90
26262;DHT22;13988;52.446;13.280;2023-12-07T11:15:06;1.80;99.90
26262;DHT22;13988;52.446;13.280;2023-12-07T11:17:50;1.80;99.90
26262;DHT22;13988;52.446;13.280;2023-12-07T11:20:19;1.80;99.90
26262;DHT22;13988;52.446;13.280;2023-12-07T11:22:46;1.80;99.90
26262;DHT22;13988;52.446;13.280;2023-12-07T11:25:12;1.80;99.90
26262;DHT22;13988;52.446;13.280;2023-12-07T11:27:37;1.80;99.90
26262;DHT22;13988;52.446;13.280;2023-12-07T11:30:03;1.80;99.90
26262;DHT22;13988;52.446;13.280;2023-12-07T11:32:29;1.70;99.90
26262;DHT22;13988;52.446;13.280;2023-12-07T11:35:02;1.70;99.90
26262;DHT22;13988;52.446;13.280;2023-12-07T11:38:02;1.70;99.90
26262;DHT22;13988;52.446;13.280;2023-12-07T11:40:33;1.80;99.90
26262;DHT22;13988;52.446;13.280;2023-12-07T11:43:00;1.80;99.90
26262;DHT22;13988;52.446;13.280;2023-12-07T11:45:49;1.80;99.90
26262;DHT22;13988;52.446;13.280;2023-12-07T11:48:15;1.80;99.90
26262;DHT22;13988;52.446;13.280;2023-12-07T11:51:08;1.80;99.90
26262;DHT22;13988;52.446;13.280;2023-12-07T11:53:35;1.80;99.90
26262;DHT22;13988;52.446;13.280;2023-12-07T11:56:05;1.70;99.90
26262;DHT22;13988;52.446;13.280;2023-12-07T11:58:33;1.70;99.90
26262;DHT22;13988;52.446;13.280;2023-12-07T12:00:59;1.80;99.90
26262;DHT22;13988;52.446;13.280;2023-12-07T12:03:27;1.90;99.90
26262;DHT22;13988;52.446;13.280;2023-12-07T12:05:52;1.90;99.90
26262;DHT22;13988;52.446;13.280;2023-12-07T12:08:20;1.90;99.90
26262;DHT22;13988;52.446;13.280;2023-12-07T12:10:47;1.90;99.90
26262;DHT22;13988;52.446;13.280;2023-12-07T12:13:15;1.90;99.90
26262;DHT22;13988;52.446;13.280;2023-12-07T12:15:41;1.90;99.90
26262;DHT22;13988;52.446;13.280;2023-12-07T12:18:07;1.90;99.90
26262;DHT22;13988;52.446;13.280;2023-12-07T12:20:34;2.00;99.90
26262;DHT22;13988;52.446;13.280;2023-12-07T12:23:00;2.00;99.90
26262;DHT22;13988;52.446;13.280;2023-12-07T12:25:27;2.00;99.90
26262;DHT22;13988;52.446;13.280;2023-12-07T12:27:58;1.90;99.90
26262;DHT22;13988;52.446;13.280;2023-12-07T12:30:24;1.90;99.90
26262;DHT22;13988;52.446;13.280;2023-12-07T12:32:50;1.90;99.90
26262;DHT22;13988;52.446;13.280;2023-12-07T12:35:19;1.90;99.90
26262;DHT22;13988;52.446;13.280;2023-12-07T12:37:46;1.90;99.90
26262;DHT22;13988;52.446;13.280;2023-12-07T12:40:15;1.90;99.90
26262;DHT22;13988;52.446;13.280;2023-12-07T12:42:47;2.00;99.90
26262;DHT22;13988;52.446;13.280;2023-12-07T12:45:16;2.00;99.90
26262;DHT22;13988;52.446;13.280;2023-12-07T12:47:44;2.00;99.90
26262;DHT22;13988;52.446;13.280;2023-12-07T12:50:39;2.00;99.90
26262;DHT22;13988;52.446;13.280;2023-12-07T12:53:07;1.90;99.90
26262;DHT22;13988;52.446;13.280;2023-12-07T12:55:38;2.00;99.90
26262;DHT22;13988;52.446;13.280;2023-12-07T12:58:06;2.00;99.90
26262;DHT22;13988;52.446;13.280;2023-12-07T13:00:32;2.10;99.90
26262;DHT22;13988;52.446;13.280;2023-12-07T13:02:59;2.00;99.90
26262;DHT22;13988;52.446;13.280;2023-12-07T13:05:26;2.00;99.90
26262;DHT22;13988;52.446;13.280;2023-12-07T13:07:52;2.10;99.90
26262;DHT22;13988;52.446;13.280;2023-12-07T13:10:17;2.00;99.90
26262;DHT22;13988;52.446;13.280;2023-12-07T13:12:43;2.00;99.90
26262;DHT22;13988;52.446;13.280;2023-12-07T13:15:11;2.10;99.90
26262;DHT22;13988;52.446;13.280;2023-12-07T13:17:38;2.10;99.90
26262;DHT22;13988;52.446;13.280;2023-12-07T13:20:08;2.20;99.90
26262;DHT22;13988;52.446;13.280;2023-12-07T13:22:42;2.10;99.90
26262;DHT22;13988;52.446;13.280;2023-12-07T13:25:09;2.10;99.90
26262;DHT22;13988;52.446;13.280;2023-12-07T13:27:35;2.00;99.90
26262;DHT22;13988;52.446;13.280;2023-12-07T13:30:02;2.00;99.90
26262;DHT22;13988;52.446;13.280;2023-12-07T13:32:31;2.00;99.90
26262;DHT22;13988;52.446;13.280;2023-12-07T13:34:58;2.00;99.90
26262;DHT22;13988;52.446;13.280;2023-12-07T13:37:24;2.00;99.90
26262;DHT22;13988;52.446;13.280;2023-12-07T13:39:49;2.00;99.90
26262;DHT22;13988;52.446;13.280;2023-12-07T13:42:21;2.00;99.90
26262;DHT22;13988;52.446;13.280;2023-12-07T13:44:47;2.00;99.90
26262;DHT22;13988;52.446;13.280;2023-12-07T13:47:16;2.00;99.90
26262;DHT22;13988;52.446;13.280;2023-12-07T13:49:42;2.00;99.90
26262;DHT22;13988;52.446;13.280;2023-12-07T13:52:08;2.00;99.90
26262;DHT22;13988;52.446;13.280;2023-12-07T13:54:37;2.00;99.90
26262;DHT22;13988;52.446;13.280;2023-12-07T13:57:04;2.00;99.90
26262;DHT22;13988;52.446;13.280;2023-12-07T13:59:30;2.00;99.90
26262;DHT22;13988;52.446;13.280;2023-12-07T14:01:55;2.00;99.90
26262;DHT22;13988;52.446;13.280;2023-12-07T14:04:21;2.00;99.90
26262;DHT22;13988;52.446;13.280;2023-12-07T14:06:48;2.00;99.90
26262;DHT22;13988;52.446;13.280;2023-12-07T14:09:13;2.10;99.90
26262;DHT22;13988;52.446;13.280;2023-12-07T14:11:39;2.10;99.90
26262;DHT22;13988;52.446;13.280;2023-12-07T14:14:05;2.10;99.90
26262;DHT22;13988;52.446;13.280;2023-12-07T14:16:30;2.10;99.90
26262;DHT22;13988;52.446;13.280;2023-12-07T14:18:56;2.10;99.90
26262;DHT22;13988;52.446;13.280;2023-12-07T14:21:21;2.00;99.90
26262;DHT22;13988;52.446;13.280;2023-12-07T14:23:48;2.00;99.90
26262;DHT22;13988;52.446;13.280;2023-12-07T14:26:14;2.00;99.90
26262;DHT22;13988;52.446;13.280;2023-12-07T14:28:39;2.00;99.90
26262;DHT22;13988;52.446;13.280;2023-12-07T14:31:05;1.90;99.90
26262;DHT22;13988;52.446;13.280;2023-12-07T14:33:36;2.00;99.90
26262;DHT22;13988;52.446;13.280;2023-12-07T14:36:01;2.00;99.90
26262;DHT22;13988;52.446;13.280;2023-12-07T14:38:27;2.00;99.90
26262;DHT22;13988;52.446;13.280;2023-12-07T14:40:53;2.00;99.90
26262;DHT22;13988;52.446;13.280;2023-12-07T14:43:20;2.10;99.90
26262;DHT22;13988;52.446;13.280;2023-12-07T14:45:45;2.10;99.90
26262;DHT22;13988;52.446;13.280;2023-12-07T14:48:11;2.00;99.90
26262;DHT22;13988;52.446;13.280;2023-12-07T14:50:37;2.00;99.90
26262;DHT22;13988;52.446;13.280;2023-12-07T14:53:04;2.00;99.90
26262;DHT22;13988;52.446;13.280;2023-12-07T14:55:30;2.10;99.90
26262;DHT22;13988;52.446;13.280;2023-12-07T14:57:55;2.10;99.90
26262;DHT22;13988;52.446;13.280;2023-12-07T15:00:21;2.10;99.90
26262;DHT22;13988;52.446;13.280;2023-12-07T15:02:47;2.00;99.90
26262;DHT22;13988;52.446;13.280;2023-12-07T15:05:13;2.00;99.90
26262;DHT22;13988;52.446;13.280;2023-12-07T15:07:38;2.00;99.90
26262;DHT22;13988;52.446;13.280;2023-12-07T15:10:05;2.00;99.90
26262;DHT22;13988;52.446;13.280;2023-12-07T15:12:30;2.00;99.90
26262;DHT22;13988;52.446;13.280;2023-12-07T15:14:56;2.00;99.90
26262;DHT22;13988;52.446;13.280;2023-12-07T15:17:22;2.00;99.90
26262;DHT22;13988;52.446;13.280;2023-12-07T15:19:47;2.00;99.90
26262;DHT22;13988;52.446;13.280;2023-12-07T15:22:13;2.00;99.90
26262;DHT22;13988;52.446;13.280;2023-12-07T15:24:39;2.00;99.90
26262;DHT22;13988;52.446;13.280;2023-12-07T15:27:04;2.10;99.90
26262;DHT22;13988;52.446;13.280;2023-12-07T15:29:30;2.00;99.90
26262;DHT22;13988;52.446;13.280;2023-12-07T15:31:56;2.00;99.90